Time;durP1;ratioP1;P1;durP2;ratioP2;P2;SDS_P1;SDS_P2;PMS_P1;PMS_P2;Temp;Humidity;BMP_temperature;BMP_pressure;BME280_temperature;BME280_humidity;BME280_pressure;Samples;Min_cycle;Max_cycle;Signal;HPM_P1;HPM_P2
2022/12/16 00:01:23;;;;;;;;;41.00;35.00;;;;;1.38;100.00;100471.63;5085313;28;45578;-87
2022/12/16 00:03:53;;;;;;;;;28.25;28.00;;;;;1.47;100.00;100488.78;5059722;28;45186;-88
2022/12/16 00:06:20;;;;;;;;;38.25;32.75;;;;;1.18;100.00;100441.25;5062656;28;45541;-87
2022/12/16 00:08:46;;;;;;;;;42.50;35.25;;;;;1.03;100.00;100404.97;5060607;28;45564;-85
2022/12/16 00:11:13;;;;;;;;;44.75;35.50;;;;;1.39;100.00;100476.03;5055576;28;47558;-87
2022/12/16 00:13:43;;;;;;;;;33.00;26.75;;;;;1.59;100.00;100506.44;5066276;28;45548;-87
2022/12/16 00:16:15;;;;;;;;;44.25;33.00;;;;;1.58;100.00;100502.03;5066641;28;45537;-87
2022/12/16 00:18:43;;;;;;;;;44.25;36.50;;;;;1.43;100.00;100481.13;5070094;28;45793;-87
2022/12/16 00:21:09;;;;;;;;;41.25;33.50;;;;;1.61;100.00;100506.28;5066744;28;46233;-88
2022/12/16 00:23:35;;;;;;;;;41.75;35.00;;;;;1.50;100.00;100487.63;5057938;28;45414;-88
2022/12/16 00:26:01;;;;;;;;;39.00;35.75;;;;;1.60;100.00;100493.75;5083089;28;45362;-88
2022/12/16 00:28:27;;;;;;;;;46.00;34.50;;;;;1.71;100.00;100514.31;5057048;28;46182;-88
2022/12/16 00:30:57;;;;;;;;;27.50;27.00;;;;;1.35;100.00;100458.44;5075632;28;46382;-84
2022/12/16 00:33:25;;;;;;;;;42.75;34.50;;;;;1.70;100.00;100520.72;5089132;27;45533;-83
2022/12/16 00:35:52;;;;;;;;;47.00;33.25;;;;;1.65;100.00;100512.25;5082032;28;44747;-87
2022/12/16 00:38:20;;;;;;;;;45.50;34.00;;;;;1.37;100.00;100466.38;5073531;28;45731;-87
2022/12/16 00:40:45;;;;;;;;;35.00;27.75;;;;;1.66;100.00;100508.50;5049019;28;47014;-87
2022/12/16 00:43:11;;;;;;;;;36.75;33.50;;;;;1.60;100.00;100485.66;5060343;28;44837;-81
2022/12/16 00:45:38;;;;;;;;;46.50;36.50;;;;;1.59;100.00;100482.09;5065015;28;45599;-83
2022/12/16 00:48:04;;;;;;;;;39.50;36.50;;;;;1.40;100.00;100461.50;5053065;28;47008;-86
2022/12/16 00:50:30;;;;;;;;;40.75;31.00;;;;;1.75;100.00;100512.97;5063435;28;47086;-84
2022/12/16 00:52:56;;;;;;;;;38.50;30.25;;;;;1.31;100.00;100440.84;5072015;27;45502;-87
2022/12/16 00:55:22;;;;;;;;;37.50;33.25;;;;;1.84;100.00;100522.88;5061339;28;45510;-81
2022/12/16 00:57:47;;;;;;;;;33.75;30.50;;;;;1.65;100.00;100490.63;5060927;28;45365;-83
2022/12/16 01:00:15;;;;;;;;;39.25;34.00;;;;;1.92;100.00;100532.88;5041866;28;48364;-83
2022/12/16 01:02:43;;;;;;;;;49.00;36.25;;;;;1.86;100.00;100526.25;5051483;28;45831;-82
2022/12/16 01:05:10;;;;;;;;;36.75;34.50;;;;;1.78;100.00;100518.06;5064779;28;45772;-87
2022/12/16 01:07:36;;;;;;;;;41.75;35.75;;;;;1.92;100.00;100541.00;5076121;28;45382;-88
2022/12/16 01:10:03;;;;;;;;;38.25;35.00;;;;;1.87;100.00;100530.66;5065225;28;47131;-87
2022/12/16 01:12:29;;;;;;;;;37.50;32.00;;;;;2.06;100.00;100539.56;5073407;28;44777;-88
2022/12/16 01:14:56;;;;;;;;;39.50;36.25;;;;;1.73;100.00;100490.66;5066347;28;45888;-87
2022/12/16 01:17:28;;;;;;;;;43.75;35.25;;;;;1.69;100.00;100509.06;5066191;28;45598;-88
2022/12/16 01:19:54;;;;;;;;;39.00;30.75;;;;;1.75;100.00;100521.06;5081250;28;45312;-86
2022/12/16 01:22:21;;;;;;;;;36.00;32.75;;;;;1.65;100.00;100498.72;5069156;28;45272;-88
2022/12/16 01:24:46;;;;;;;;;42.75;35.00;;;;;1.75;100.00;100512.97;5086606;28;45403;-86
2022/12/16 01:27:12;;;;;;;;;39.75;35.50;;;;;1.91;100.00;100552.81;5064061;28;46096;-85
2022/12/16 01:29:40;;;;;;;;;37.00;32.00;;;;;2.06;100.00;100567.47;5073697;28;46426;-83
2022/12/16 01:32:10;;;;;;;;;39.00;33.75;;;;;1.81;100.00;100523.19;5056367;28;45551;-83
2022/12/16 01:34:36;;;;;;;;;46.75;37.25;;;;;2.04;100.00;100574.06;5061115;28;45443;-88
2022/12/16 01:37:08;;;;;;;;;44.00;38.00;;;;;1.96;100.00;100576.69;5067135;28;45748;-88
2022/12/16 01:39:34;;;;;;;;;41.75;35.75;;;;;2.05;100.00;100589.25;5085438;28;45788;-88
2022/12/16 01:41:59;;;;;;;;;46.50;37.75;;;;;1.92;100.00;100578.84;5089882;28;44768;-88
2022/12/16 01:44:29;;;;;;;;;51.25;40.25;;;;;1.87;100.00;100567.66;5068794;28;45391;-82
2022/12/16 01:46:59;;;;;;;;;40.75;36.00;;;;;2.03;100.00;100596.69;5079107;28;45207;-81
2022/12/16 01:49:32;;;;;;;;;48.00;39.50;;;;;1.80;100.00;100563.88;5077369;28;45564;-83
2022/12/16 01:52:03;;;;;;;;;52.50;42.25;;;;;1.76;100.00;100571.44;5058936;28;45987;-82
2022/12/16 01:54:37;;;;;;;;;52.25;40.25;;;;;1.92;100.00;100600.50;5078997;28;45373;-82
2022/12/16 01:57:08;;;;;;;;;56.00;42.75;;;;;1.76;100.00;100587.66;5054069;28;45536;-83
2022/12/16 01:59:38;;;;;;;;;54.25;42.00;;;;;1.91;100.00;100612.31;5059238;28;47220;-82
2022/12/16 02:02:05;;;;;;;;;44.75;40.25;;;;;1.55;100.00;100569.06;5069700;28;45448;-87
2022/12/16 02:04:33;;;;;;;;;56.25;44.75;;;;;1.49;100.00;100572.38;5076616;28;45550;-89
2022/12/16 02:07:01;;;;;;;;;55.25;44.00;;;;;1.15;100.00;100519.91;5064963;28;45990;-88
2022/12/16 02:09:27;;;;;;;;;57.00;47.25;;;;;1.68;100.00;100617.34;5094547;28;45678;-87
2022/12/16 02:12:34;;;;;;;;;52.00;42.00;;;;;1.76;100.00;100636.34;5071133;28;44853;-85
2022/12/16 02:15:57;;;;;;;;;59.25;42.00;;;;;1.70;100.00;100634.25;5060386;28;45538;-82
2022/12/16 02:18:32;;;;;;;;;56.00;42.75;;;;;1.67;100.00;100626.44;5020921;28;46440;-84
2022/12/16 02:21:12;;;;;;;;;45.75;38.00;;;;;1.67;100.00;100624.59;5025300;28;45771;-88
2022/12/16 02:23:47;;;;;;;;;53.25;43.00;;;;;1.67;100.00;100627.28;5052031;28;45394;-82
2022/12/16 02:26:25;;;;;;;;;56.25;42.25;;;;;1.65;100.00;100623.06;5070861;28;45824;-81
2022/12/16 02:29:31;;;;;;;;;57.00;44.50;;;;;1.64;100.00;100624.91;5076240;28;45332;-81
2022/12/16 02:32:09;;;;;;;;;49.00;41.75;;;;;1.64;100.00;100624.06;5062444;28;47116;-85
2022/12/16 02:34:55;;;;;;;;;42.50;39.50;;;;;1.39;100.00;100588.66;5086290;28;44792;-87
2022/12/16 02:37:47;;;;;;;;;55.00;45.25;;;;;1.49;100.00;100602.94;5088758;28;45536;-85
2022/12/16 02:40:49;;;;;;;;;58.25;44.25;;;;;1.63;100.00;100627.75;5077491;28;45114;-86
2022/12/16 02:43:35;;;;;;;;;46.50;41.00;;;;;1.47;100.00;100602.28;5052741;28;46455;-87
2022/12/16 02:46:02;;;;;;;;;61.50;45.25;;;;;1.35;100.00;100590.00;5067803;28;45248;-86
2022/12/16 02:48:28;;;;;;;;;54.75;41.50;;;;;1.31;100.00;100594.81;5072952;28;45393;-82
2022/12/16 02:50:53;;;;;;;;;59.25;46.75;;;;;1.56;100.00;100641.88;5076403;28;45484;-83
2022/12/16 02:53:20;;;;;;;;;56.75;43.25;;;;;1.43;100.00;100614.38;5072261;28;47116;-82
2022/12/16 02:56:02;;;;;;;;;57.75;45.00;;;;;1.28;100.00;100597.00;5064368;28;45461;-86
2022/12/16 02:58:41;;;;;;;;;54.75;41.00;;;;;1.43;100.00;100614.38;5058358;28;45454;-84
2022/12/16 03:01:22;;;;;;;;;48.25;41.50;;;;;1.65;100.00;100647.41;5051119;28;45553;-82
2022/12/16 03:03:51;;;;;;;;;63.00;45.25;;;;;1.66;100.00;100640.97;5062379;28;46726;-88
2022/12/16 03:06:19;;;;;;;;;57.00;43.75;;;;;1.64;100.00;100649.22;5051993;28;45427;-86
2022/12/16 03:08:54;;;;;;;;;55.50;41.50;;;;;1.47;100.00;100607.69;5072898;28;45318;-88
2022/12/16 03:11:19;;;;;;;;;60.00;44.25;;;;;1.76;100.00;100642.59;5048370;28;47206;-88
2022/12/16 03:13:53;;;;;;;;;61.50;47.00;;;;;1.60;100.00;100631.59;5073146;28;48334;-87
2022/12/16 03:16:23;;;;;;;;;55.75;44.75;;;;;1.33;100.00;100598.25;5065078;28;45592;-86
2022/12/16 03:19:00;;;;;;;;;58.25;47.00;;;;;1.38;100.00;100617.53;5052390;28;45806;-83
2022/12/16 03:21:34;;;;;;;;;51.75;44.00;;;;;1.00;100.00;100546.56;5069974;28;45774;-86
2022/12/16 03:24:02;;;;;;;;;54.00;40.50;;;;;1.43;100.00;100617.09;5062987;28;47107;-87
2022/12/16 03:26:36;;;;;;;;;53.25;40.00;;;;;1.53;100.00;100639.50;5077493;28;45742;-86
2022/12/16 03:29:26;;;;;;;;;56.25;46.75;;;;;1.46;100.00;100619.47;5053709;28;45527;-88
2022/12/16 03:32:02;;;;;;;;;58.50;43.75;;;;;1.68;100.00;100664.16;5080701;28;45722;-86
2022/12/16 03:34:33;;;;;;;;;62.00;46.25;;;;;1.66;100.00;100665.28;5056326;28;46710;-84
2022/12/16 03:37:03;;;;;;;;;56.25;44.25;;;;;1.40;100.00;100628.19;5063609;28;45469;-83
2022/12/16 03:39:33;;;;;;;;;61.75;47.50;;;;;1.25;100.00;100619.75;5053969;28;45901;-82
2022/12/16 03:42:01;;;;;;;;;56.25;43.50;;;;;1.47;100.00;100650.03;5045873;28;47097;-82
2022/12/16 03:44:28;;;;;;;;;54.75;43.75;;;;;1.59;100.00;100673.19;5065167;28;45713;-83
2022/12/16 03:46:53;;;;;;;;;59.25;44.75;;;;;1.61;100.00;100683.84;5070608;28;45670;-82
2022/12/16 03:49:20;;;;;;;;;55.25;40.25;;;;;1.44;100.00;100645.81;5075115;28;45727;-82
2022/12/16 03:51:49;;;;;;;;;58.75;44.75;;;;;1.36;100.00;100635.78;5050358;28;45747;-83
2022/12/16 03:54:15;;;;;;;;;58.75;44.25;;;;;1.51;100.00;100638.81;5079264;28;45342;-87
2022/12/16 03:56:40;;;;;;;;;48.00;40.00;;;;;1.62;100.00;100663.88;5054556;28;45399;-86
2022/12/16 03:59:06;;;;;;;;;55.00;39.00;;;;;1.66;100.00;100668.88;5068032;28;45366;-86
2022/12/16 04:01:31;;;;;;;;;56.50;41.00;;;;;1.45;100.00;100646.66;5077088;28;45436;-87
2022/12/16 04:03:57;;;;;;;;;61.50;45.75;;;;;1.67;100.00;100683.22;5075754;28;45543;-80
2022/12/16 04:06:22;;;;;;;;;55.25;39.25;;;;;1.54;100.00;100664.66;5075641;28;45465;-82
2022/12/16 04:08:48;;;;;;;;;61.00;43.00;;;;;1.63;100.00;100681.81;5058410;28;45431;-81
2022/12/16 04:25:36;;;;;;;;;44.25;39.00;;;;;1.79;100.00;100702.78;5084168;28;45358;-86
2022/12/16 04:28:02;;;;;;;;;39.25;35.25;;;;;1.75;100.00;100686.88;5062188;28;45447;-88
2022/12/16 04:30:33;;;;;;;;;44.50;38.00;;;;;1.89;100.00;100714.38;5052532;28;45462;-83
